sensor_id;sensor_type;location;lat;lon;timestamp;P1;durP1;ratioP1;P2;durP2;ratioP2
70303;SDS011;57712;48.752;11.348;2023-03-15T00:00:21;3.85;;;0.70;;
70303;SDS011;57712;48.752;11.348;2023-03-15T00:02:48;11.40;;;2.15;;
70303;SDS011;57712;48.752;11.348;2023-03-15T00:05:15;3.00;;;0.73;;
70303;SDS011;57712;48.752;11.348;2023-03-15T00:07:42;4.43;;;0.50;;
70303;SDS011;57712;48.752;11.348;2023-03-15T00:10:09;3.38;;;0.40;;
70303;SDS011;57712;48.752;11.348;2023-03-15T00:12:36;3.20;;;0.43;;
70303;SDS011;57712;48.752;11.348;2023-03-15T00:15:02;2.70;;;0.40;;
70303;SDS011;57712;48.752;11.348;2023-03-15T00:17:29;2.97;;;0.40;;
70303;SDS011;57712;48.752;11.348;2023-03-15T00:20:00;3.33;;;0.47;;
70303;SDS011;57712;48.752;11.348;2023-03-15T00:22:26;3.10;;;0.50;;
70303;SDS011;57712;48.752;11.348;2023-03-15T00:24:53;2.78;;;0.35;;
70303;SDS011;57712;48.752;11.348;2023-03-15T00:27:20;3.22;;;0.40;;
70303;SDS011;57712;48.752;11.348;2023-03-15T00:29:47;2.63;;;0.40;;
70303;SDS011;57712;48.752;11.348;2023-03-15T00:32:14;2.88;;;0.43;;
70303;SDS011;57712;48.752;11.348;2023-03-15T00:34:41;2.80;;;0.43;;
70303;SDS011;57712;48.752;11.348;2023-03-15T00:37:17;3.30;;;0.55;;
70303;SDS011;57712;48.752;11.348;2023-03-15T00:39:45;2.70;;;0.40;;
70303;SDS011;57712;48.752;11.348;2023-03-15T00:42:12;3.00;;;0.40;;
70303;SDS011;57712;48.752;11.348;2023-03-15T00:44:45;2.60;;;0.47;;
70303;SDS011;57712;48.752;11.348;2023-03-15T00:47:12;3.63;;;0.52;;
70303;SDS011;57712;48.752;11.348;2023-03-15T00:49:40;3.58;;;0.30;;
70303;SDS011;57712;48.752;11.348;2023-03-15T00:52:06;3.58;;;0.70;;
70303;SDS011;57712;48.752;11.348;2023-03-15T00:54:33;3.70;;;0.67;;
70303;SDS011;57712;48.752;11.348;2023-03-15T00:57:00;3.42;;;0.70;;
70303;SDS011;57712;48.752;11.348;2023-03-15T00:59:28;3.42;;;0.45;;
70303;SDS011;57712;48.752;11.348;2023-03-15T01:02:00;4.95;;;0.80;;
70303;SDS011;57712;48.752;11.348;2023-03-15T01:04:28;4.38;;;0.80;;
70303;SDS011;57712;48.752;11.348;2023-03-15T01:06:54;3.77;;;0.60;;
70303;SDS011;57712;48.752;11.348;2023-03-15T01:09:21;3.28;;;0.40;;
70303;SDS011;57712;48.752;11.348;2023-03-15T01:11:47;5.22;;;0.50;;
70303;SDS011;57712;48.752;11.348;2023-03-15T01:14:14;3.72;;;0.52;;
70303;SDS011;57712;48.752;11.348;2023-03-15T01:16:40;3.10;;;0.38;;
70303;SDS011;57712;48.752;11.348;2023-03-15T01:19:07;4.27;;;0.80;;
70303;SDS011;57712;48.752;11.348;2023-03-15T01:21:34;3.05;;;0.70;;
70303;SDS011;57712;48.752;11.348;2023-03-15T01:24:00;3.75;;;0.60;;
70303;SDS011;57712;48.752;11.348;2023-03-15T01:26:27;3.58;;;0.93;;
70303;SDS011;57712;48.752;11.348;2023-03-15T01:28:53;3.47;;;0.68;;
70303;SDS011;57712;48.752;11.348;2023-03-15T01:31:24;3.67;;;0.97;;
70303;SDS011;57712;48.752;11.348;2023-03-15T01:33:53;5.15;;;0.73;;
70303;SDS011;57712;48.752;11.348;2023-03-15T01:36:20;5.60;;;0.80;;
70303;SDS011;57712;48.752;11.348;2023-03-15T01:38:47;4.60;;;0.80;;
70303;SDS011;57712;48.752;11.348;2023-03-15T01:41:15;6.97;;;1.00;;
70303;SDS011;57712;48.752;11.348;2023-03-15T01:43:43;7.27;;;1.10;;
70303;SDS011;57712;48.752;11.348;2023-03-15T01:46:17;5.68;;;1.00;;
70303;SDS011;57712;48.752;11.348;2023-03-15T01:48:59;6.13;;;1.23;;
70303;SDS011;57712;48.752;11.348;2023-03-15T01:56:56;10.93;;;1.80;;
70303;SDS011;57712;48.752;11.348;2023-03-15T01:59:47;10.43;;;1.70;;
70303;SDS011;57712;48.752;11.348;2023-03-15T02:02:19;8.05;;;1.33;;
70303;SDS011;57712;48.752;11.348;2023-03-15T02:04:49;8.45;;;1.50;;
70303;SDS011;57712;48.752;11.348;2023-03-15T02:07:21;6.10;;;1.40;;
70303;SDS011;57712;48.752;11.348;2023-03-15T02:09:53;5.93;;;1.30;;
70303;SDS011;57712;48.752;11.348;2023-03-15T02:12:35;5.65;;;1.45;;
70303;SDS011;57712;48.752;11.348;2023-03-15T02:15:07;5.65;;;1.10;;
70303;SDS011;57712;48.752;11.348;2023-03-15T02:17:36;7.45;;;1.67;;
70303;SDS011;57712;48.752;11.348;2023-03-15T02:25:45;7.22;;;1.92;;
70303;SDS011;57712;48.752;11.348;2023-03-15T02:28:19;7.55;;;1.52;;
70303;SDS011;57712;48.752;11.348;2023-03-15T02:30:46;7.10;;;1.52;;
70303;SDS011;57712;48.752;11.348;2023-03-15T02:33:21;6.28;;;1.45;;
70303;SDS011;57712;48.752;11.348;2023-03-15T02:35:51;7.13;;;1.60;;
70303;SDS011;57712;48.752;11.348;2023-03-15T02:38:18;7.13;;;1.20;;
70303;SDS011;57712;48.752;11.348;2023-03-15T02:40:45;7.90;;;1.00;;
70303;SDS011;57712;48.752;11.348;2023-03-15T02:43:13;6.45;;;1.17;;
70303;SDS011;57712;48.752;11.348;2023-03-15T02:45:45;5.55;;;1.50;;
70303;SDS011;57712;48.752;11.348;2023-03-15T02:48:13;6.23;;;1.43;;
70303;SDS011;57712;48.752;11.348;2023-03-15T02:50:40;4.70;;;1.17;;
70303;SDS011;57712;48.752;11.348;2023-03-15T02:53:07;4.95;;;1.15;;
70303;SDS011;57712;48.752;11.348;2023-03-15T02:55:34;4.35;;;0.80;;
70303;SDS011;57712;48.752;11.348;2023-03-15T02:58:01;4.03;;;1.17;;
70303;SDS011;57712;48.752;11.348;2023-03-15T03:00:27;4.13;;;0.60;;
70303;SDS011;57712;48.752;11.348;2023-03-15T03:02:54;3.33;;;0.55;;
70303;SDS011;57712;48.752;11.348;2023-03-15T03:05:21;2.50;;;0.30;;
70303;SDS011;57712;48.752;11.348;2023-03-15T03:07:48;3.55;;;0.47;;
70303;SDS011;57712;48.752;11.348;2023-03-15T03:10:16;4.07;;;0.38;;
70303;SDS011;57712;48.752;11.348;2023-03-15T03:12:44;3.20;;;0.53;;
70303;SDS011;57712;48.752;11.348;2023-03-15T03:15:10;3.10;;;0.40;;
70303;SDS011;57712;48.752;11.348;2023-03-15T03:17:37;2.70;;;0.40;;
70303;SDS011;57712;48.752;11.348;2023-03-15T03:20:05;4.00;;;0.57;;
70303;SDS011;57712;48.752;11.348;2023-03-15T03:22:33;3.28;;;0.30;;
70303;SDS011;57712;48.752;11.348;2023-03-15T03:25:00;3.97;;;0.57;;
70303;SDS011;57712;48.752;11.348;2023-03-15T03:27:27;6.97;;;0.50;;
70303;SDS011;57712;48.752;11.348;2023-03-15T03:29:55;4.70;;;0.70;;
70303;SDS011;57712;48.752;11.348;2023-03-15T03:32:21;4.43;;;0.43;;
70303;SDS011;57712;48.752;11.348;2023-03-15T03:34:48;4.63;;;0.95;;
70303;SDS011;57712;48.752;11.348;2023-03-15T03:37:18;4.97;;;0.70;;
70303;SDS011;57712;48.752;11.348;2023-03-15T03:39:45;4.13;;;0.47;;
70303;SDS011;57712;48.752;11.348;2023-03-15T03:42:12;3.67;;;0.60;;
70303;SDS011;57712;48.752;11.348;2023-03-15T03:44:39;3.25;;;0.45;;
70303;SDS011;57712;48.752;11.348;2023-03-15T03:47:07;4.03;;;0.45;;
70303;SDS011;57712;48.752;11.348;2023-03-15T03:49:33;4.97;;;0.80;;
70303;SDS011;57712;48.752;11.348;2023-03-15T03:52:00;6.40;;;0.80;;
70303;SDS011;57712;48.752;11.348;2023-03-15T03:54:26;4.80;;;0.60;;
70303;SDS011;57712;48.752;11.348;2023-03-15T03:56:53;4.13;;;0.60;;
70303;SDS011;57712;48.752;11.348;2023-03-15T03:59:20;5.78;;;0.85;;
70303;SDS011;57712;48.752;11.348;2023-03-15T04:01:46;6.40;;;0.90;;
70303;SDS011;57712;48.752;11.348;2023-03-15T04:04:13;6.47;;;0.90;;
70303;SDS011;57712;48.752;11.348;2023-03-15T04:06:40;5.32;;;1.00;;
70303;SDS011;57712;48.752;11.348;2023-03-15T04:09:13;7.70;;;1.60;;
70303;SDS011;57712;48.752;11.348;2023-03-15T04:11:41;6.22;;;1.77;;
70303;SDS011;57712;48.752;11.348;2023-03-15T04:14:09;9.80;;;1.30;;
70303;SDS011;57712;48.752;11.348;2023-03-15T04:16:36;6.75;;;1.35;;
70303;SDS011;57712;48.752;11.348;2023-03-15T04:19:03;7.38;;;1.17;;
70303;SDS011;57712;48.752;11.348;2023-03-15T04:21:30;6.00;;;1.20;;
70303;SDS011;57712;48.752;11.348;2023-03-15T04:23:57;5.72;;;1.38;;
70303;SDS011;57712;48.752;11.348;2023-03-15T04:26:25;8.97;;;1.60;;
70303;SDS011;57712;48.752;11.348;2023-03-15T04:28:52;6.20;;;1.25;;
70303;SDS011;57712;48.752;11.348;2023-03-15T04:31:20;5.90;;;0.93;;
70303;SDS011;57712;48.752;11.348;2023-03-15T04:33:47;7.40;;;1.55;;
70303;SDS011;57712;48.752;11.348;2023-03-15T04:36:14;7.35;;;1.33;;
70303;SDS011;57712;48.752;11.348;2023-03-15T04:38:44;9.23;;;1.50;;
70303;SDS011;57712;48.752;11.348;2023-03-15T04:41:14;5.45;;;1.23;;
70303;SDS011;57712;48.752;11.348;2023-03-15T04:43:42;8.65;;;1.75;;
70303;SDS011;57712;48.752;11.348;2023-03-15T04:46:09;8.43;;;1.83;;
70303;SDS011;57712;48.752;11.348;2023-03-15T04:48:36;7.93;;;2.22;;
70303;SDS011;57712;48.752;11.348;2023-03-15T04:51:02;5.65;;;1.80;;
70303;SDS011;57712;48.752;11.348;2023-03-15T04:53:29;13.25;;;2.80;;
70303;SDS011;57712;48.752;11.348;2023-03-15T04:55:56;10.35;;;2.10;;
70303;SDS011;57712;48.752;11.348;2023-03-15T04:58:22;10.60;;;2.92;;
70303;SDS011;57712;48.752;11.348;2023-03-15T05:00:49;8.75;;;2.63;;
70303;SDS011;57712;48.752;11.348;2023-03-15T05:03:16;7.97;;;2.60;;
70303;SDS011;57712;48.752;11.348;2023-03-15T05:05:43;11.30;;;3.00;;
70303;SDS011;57712;48.752;11.348;2023-03-15T05:08:10;10.15;;;2.70;;
70303;SDS011;57712;48.752;11.348;2023-03-15T05:10:36;8.43;;;2.92;;
70303;SDS011;57712;48.752;11.348;2023-03-15T05:13:03;9.50;;;2.63;;
70303;SDS011;57712;48.752;11.348;2023-03-15T05:15:29;11.27;;;2.60;;
70303;SDS011;57712;48.752;11.348;2023-03-15T05:18:00;8.98;;;2.53;;
70303;SDS011;57712;48.752;11.348;2023-03-15T05:20:26;9.48;;;2.65;;
70303;SDS011;57712;48.752;11.348;2023-03-15T05:22:53;9.77;;;2.60;;
70303;SDS011;57712;48.752;11.348;2023-03-15T05:25:20;8.55;;;3.40;;
70303;SDS011;57712;48.752;11.348;2023-03-15T05:27:46;10.83;;;3.20;;
70303;SDS011;57712;48.752;11.348;2023-03-15T05:30:13;10.80;;;3.35;;
70303;SDS011;57712;48.752;11.348;2023-03-15T05:32:41;8.60;;;2.50;;
70303;SDS011;57712;48.752;11.348;2023-03-15T05:35:10;10.23;;;3.63;;
70303;SDS011;57712;48.752;11.348;2023-03-15T05:37:38;9.65;;;3.35;;
70303;SDS011;57712;48.752;11.348;2023-03-15T05:40:05;11.45;;;3.13;;
70303;SDS011;57712;48.752;11.348;2023-03-15T05:42:35;10.88;;;3.38;;
70303;SDS011;57712;48.752;11.348;2023-03-15T05:45:02;10.18;;;3.90;;
70303;SDS011;57712;48.752;11.348;2023-03-15T05:47:28;11.63;;;3.65;;
70303;SDS011;57712;48.752;11.348;2023-03-15T05:49:57;13.70;;;3.85;;
70303;SDS011;57712;48.752;11.348;2023-03-15T05:52:24;11.10;;;3.63;;
70303;SDS011;57712;48.752;11.348;2023-03-15T05:54:51;10.57;;;3.72;;
70303;SDS011;57712;48.752;11.348;2023-03-15T05:57:18;11.75;;;3.92;;
70303;SDS011;57712;48.752;11.348;2023-03-15T05:59:45;15.10;;;3.97;;
70303;SDS011;57712;48.752;11.348;2023-03-15T06:02:11;13.93;;;4.00;;
70303;SDS011;57712;48.752;11.348;2023-03-15T06:04:38;11.85;;;4.53;;
70303;SDS011;57712;48.752;11.348;2023-03-15T06:07:05;12.88;;;4.25;;
70303;SDS011;57712;48.752;11.348;2023-03-15T06:09:32;11.18;;;4.35;;
70303;SDS011;57712;48.752;11.348;2023-03-15T06:11:58;12.55;;;4.47;;
70303;SDS011;57712;48.752;11.348;2023-03-15T06:14:25;12.63;;;4.97;;
70303;SDS011;57712;48.752;11.348;2023-03-15T06:16:53;15.07;;;4.80;;
70303;SDS011;57712;48.752;11.348;2023-03-15T06:19:20;11.60;;;4.57;;
70303;SDS011;57712;48.752;11.348;2023-03-15T06:21:47;11.88;;;4.22;;
70303;SDS011;57712;48.752;11.348;2023-03-15T06:24:14;12.82;;;5.20;;
70303;SDS011;57712;48.752;11.348;2023-03-15T06:26:41;11.98;;;4.85;;
70303;SDS011;57712;48.752;11.348;2023-03-15T06:29:08;14.93;;;5.73;;
70303;SDS011;57712;48.752;11.348;2023-03-15T06:31:34;11.30;;;5.45;;
70303;SDS011;57712;48.752;11.348;2023-03-15T06:34:01;14.18;;;5.80;;
70303;SDS011;57712;48.752;11.348;2023-03-15T06:36:28;17.48;;;6.38;;
70303;SDS011;57712;48.752;11.348;2023-03-15T06:38:56;18.80;;;5.95;;
70303;SDS011;57712;48.752;11.348;2023-03-15T06:41:23;12.90;;;4.87;;
70303;SDS011;57712;48.752;11.348;2023-03-15T06:43:50;15.95;;;5.38;;
70303;SDS011;57712;48.752;11.348;2023-03-15T06:46:17;14.20;;;4.75;;
70303;SDS011;57712;48.752;11.348;2023-03-15T06:48:43;12.63;;;4.97;;
70303;SDS011;57712;48.752;11.348;2023-03-15T06:51:10;15.52;;;5.70;;
70303;SDS011;57712;48.752;11.348;2023-03-15T06:53:37;14.87;;;5.30;;
70303;SDS011;57712;48.752;11.348;2023-03-15T06:56:03;12.52;;;4.85;;
70303;SDS011;57712;48.752;11.348;2023-03-15T06:58:30;13.82;;;4.82;;
70303;SDS011;57712;48.752;11.348;2023-03-15T07:00:56;14.40;;;4.97;;
70303;SDS011;57712;48.752;11.348;2023-03-15T07:03:23;13.02;;;4.97;;
70303;SDS011;57712;48.752;11.348;2023-03-15T07:05:50;16.87;;;5.63;;
70303;SDS011;57712;48.752;11.348;2023-03-15T07:08:19;14.85;;;4.85;;
70303;SDS011;57712;48.752;11.348;2023-03-15T07:10:48;15.85;;;5.10;;
70303;SDS011;57712;48.752;11.348;2023-03-15T07:13:16;18.83;;;5.20;;
70303;SDS011;57712;48.752;11.348;2023-03-15T07:15:43;16.63;;;5.38;;
70303;SDS011;57712;48.752;11.348;2023-03-15T07:18:10;13.47;;;5.30;;
70303;SDS011;57712;48.752;11.348;2023-03-15T07:20:37;15.60;;;5.57;;
70303;SDS011;57712;48.752;11.348;2023-03-15T07:23:03;16.60;;;5.63;;
70303;SDS011;57712;48.752;11.348;2023-03-15T07:25:30;14.82;;;5.50;;
70303;SDS011;57712;48.752;11.348;2023-03-15T07:27:58;12.00;;;4.72;;
70303;SDS011;57712;48.752;11.348;2023-03-15T07:30:24;16.20;;;5.23;;
70303;SDS011;57712;48.752;11.348;2023-03-15T07:32:51;15.98;;;5.63;;
70303;SDS011;57712;48.752;11.348;2023-03-15T07:35:18;11.23;;;5.20;;
70303;SDS011;57712;48.752;11.348;2023-03-15T07:37:45;13.27;;;4.80;;
70303;SDS011;57712;48.752;11.348;2023-03-15T07:40:12;13.65;;;4.60;;
70303;SDS011;57712;48.752;11.348;2023-03-15T07:42:41;15.83;;;6.30;;
70303;SDS011;57712;48.752;11.348;2023-03-15T07:45:09;11.65;;;4.65;;
70303;SDS011;57712;48.752;11.348;2023-03-15T07:47:36;12.25;;;4.05;;
70303;SDS011;57712;48.752;11.348;2023-03-15T07:50:03;10.93;;;3.95;;
70303;SDS011;57712;48.752;11.348;2023-03-15T07:52:30;12.88;;;4.43;;
70303;SDS011;57712;48.752;11.348;2023-03-15T07:54:58;13.17;;;4.33;;
70303;SDS011;57712;48.752;11.348;2023-03-15T07:57:25;8.95;;;4.05;;
70303;SDS011;57712;48.752;11.348;2023-03-15T07:59:54;9.82;;;4.00;;
70303;SDS011;57712;48.752;11.348;2023-03-15T08:02:21;11.10;;;3.63;;
70303;SDS011;57712;48.752;11.348;2023-03-15T08:04:50;10.00;;;3.65;;
70303;SDS011;57712;48.752;11.348;2023-03-15T08:07:16;12.23;;;3.97;;
70303;SDS011;57712;48.752;11.348;2023-03-15T08:09:43;10.95;;;4.45;;
70303;SDS011;57712;48.752;11.348;2023-03-15T08:12:10;10.65;;;2.58;;
70303;SDS011;57712;48.752;11.348;2023-03-15T08:14:37;11.27;;;2.83;;
70303;SDS011;57712;48.752;11.348;2023-03-15T08:17:03;13.75;;;3.15;;
70303;SDS011;57712;48.752;11.348;2023-03-15T08:19:30;8.03;;;3.43;;
70303;SDS011;57712;48.752;11.348;2023-03-15T08:21:57;10.75;;;3.40;;
70303;SDS011;57712;48.752;11.348;2023-03-15T08:24:23;11.65;;;4.80;;
70303;SDS011;57712;48.752;11.348;2023-03-15T08:26:50;14.18;;;4.97;;
70303;SDS011;57712;48.752;11.348;2023-03-15T08:29:16;11.82;;;4.32;;
70303;SDS011;57712;48.752;11.348;2023-03-15T08:31:43;10.60;;;4.20;;
70303;SDS011;57712;48.752;11.348;2023-03-15T08:34:10;12.05;;;4.28;;
70303;SDS011;57712;48.752;11.348;2023-03-15T08:36:37;11.27;;;3.83;;
70303;SDS011;57712;48.752;11.348;2023-03-15T08:39:03;10.82;;;4.00;;
70303;SDS011;57712;48.752;11.348;2023-03-15T08:41:31;11.50;;;4.28;;
70303;SDS011;57712;48.752;11.348;2023-03-15T08:43:57;12.83;;;4.23;;
70303;SDS011;57712;48.752;11.348;2023-03-15T08:46:24;14.75;;;4.78;;
70303;SDS011;57712;48.752;11.348;2023-03-15T08:48:52;11.10;;;3.67;;
70303;SDS011;57712;48.752;11.348;2023-03-15T08:51:19;12.00;;;3.65;;
70303;SDS011;57712;48.752;11.348;2023-03-15T08:53:46;12.43;;;4.07;;
70303;SDS011;57712;48.752;11.348;2023-03-15T08:56:13;10.70;;;3.03;;
70303;SDS011;57712;48.752;11.348;2023-03-15T08:58:39;11.82;;;3.05;;
70303;SDS011;57712;48.752;11.348;2023-03-15T09:01:06;9.27;;;3.10;;
70303;SDS011;57712;48.752;11.348;2023-03-15T09:03:35;7.25;;;2.85;;
70303;SDS011;57712;48.752;11.348;2023-03-15T09:06:02;6.93;;;3.03;;
70303;SDS011;57712;48.752;11.348;2023-03-15T09:08:28;8.43;;;2.53;;
70303;SDS011;57712;48.752;11.348;2023-03-15T09:10:55;9.75;;;3.03;;
70303;SDS011;57712;48.752;11.348;2023-03-15T09:13:23;7.20;;;2.55;;
70303;SDS011;57712;48.752;11.348;2023-03-15T09:15:54;11.55;;;2.80;;
70303;SDS011;57712;48.752;11.348;2023-03-15T09:18:22;10.93;;;2.30;;
70303;SDS011;57712;48.752;11.348;2023-03-15T09:20:50;8.03;;;2.10;;
70303;SDS011;57712;48.752;11.348;2023-03-15T09:23:17;5.90;;;1.70;;
70303;SDS011;57712;48.752;11.348;2023-03-15T09:25:44;7.40;;;2.33;;
70303;SDS011;57712;48.752;11.348;2023-03-15T09:28:11;9.55;;;2.33;;
70303;SDS011;57712;48.752;11.348;2023-03-15T09:30:38;9.95;;;2.83;;
70303;SDS011;57712;48.752;11.348;2023-03-15T09:33:06;6.17;;;2.30;;
70303;SDS011;57712;48.752;11.348;2023-03-15T09:35:33;7.22;;;1.70;;
70303;SDS011;57712;48.752;11.348;2023-03-15T09:38:00;9.30;;;2.55;;
70303;SDS011;57712;48.752;11.348;2023-03-15T09:40:27;13.27;;;2.35;;
70303;SDS011;57712;48.752;11.348;2023-03-15T09:42:58;6.95;;;1.65;;
70303;SDS011;57712;48.752;11.348;2023-03-15T09:45:29;8.37;;;2.10;;
70303;SDS011;57712;48.752;11.348;2023-03-15T09:50:56;8.23;;;1.85;;
70303;SDS011;57712;48.752;11.348;2023-03-15T09:53:36;12.57;;;1.85;;
70303;SDS011;57712;48.752;11.348;2023-03-15T09:56:17;8.02;;;2.08;;
70303;SDS011;57712;48.752;11.348;2023-03-15T09:58:50;10.43;;;2.20;;
70303;SDS011;57712;48.752;11.348;2023-03-15T10:01:34;6.78;;;2.20;;
70303;SDS011;57712;48.752;11.348;2023-03-15T10:04:18;6.05;;;1.35;;
70303;SDS011;57712;48.752;11.348;2023-03-15T10:06:57;8.27;;;1.55;;
70303;SDS011;57712;48.752;11.348;2023-03-15T10:09:30;8.32;;;1.50;;
70303;SDS011;57712;48.752;11.348;2023-03-15T10:12:45;11.80;;;1.83;;
70303;SDS011;57712;48.752;11.348;2023-03-15T10:20:32;5.65;;;1.35;;
70303;SDS011;57712;48.752;11.348;2023-03-15T10:23:10;7.07;;;1.40;;
70303;SDS011;57712;48.752;11.348;2023-03-15T10:25:43;6.43;;;1.23;;
70303;SDS011;57712;48.752;11.348;2023-03-15T10:28:26;8.70;;;1.35;;
70303;SDS011;57712;48.752;11.348;2023-03-15T10:30:58;8.20;;;1.70;;
70303;SDS011;57712;48.752;11.348;2023-03-15T10:33:37;4.90;;;1.30;;
70303;SDS011;57712;48.752;11.348;2023-03-15T10:36:18;6.72;;;1.02;;
70303;SDS011;57712;48.752;11.348;2023-03-15T10:38:46;6.33;;;1.23;;
70303;SDS011;57712;48.752;11.348;2023-03-15T10:41:28;5.50;;;1.10;;
70303;SDS011;57712;48.752;11.348;2023-03-15T10:44:04;8.93;;;1.95;;
70303;SDS011;57712;48.752;11.348;2023-03-15T10:46:32;5.13;;;1.35;;
70303;SDS011;57712;48.752;11.348;2023-03-15T10:51:38;6.93;;;1.10;;
70303;SDS011;57712;48.752;11.348;2023-03-15T10:54:21;6.63;;;1.42;;
70303;SDS011;57712;48.752;11.348;2023-03-15T10:56:53;7.32;;;2.00;;
70303;SDS011;57712;48.752;11.348;2023-03-15T10:59:25;7.88;;;2.45;;
70303;SDS011;57712;48.752;11.348;2023-03-15T11:04:43;7.73;;;1.73;;
70303;SDS011;57712;48.752;11.348;2023-03-15T11:07:24;9.68;;;1.67;;
70303;SDS011;57712;48.752;11.348;2023-03-15T11:09:52;4.47;;;1.30;;
70303;SDS011;57712;48.752;11.348;2023-03-15T11:12:24;7.43;;;1.33;;
70303;SDS011;57712;48.752;11.348;2023-03-15T11:14:57;8.43;;;1.30;;
70303;SDS011;57712;48.752;11.348;2023-03-15T11:17:51;5.27;;;1.00;;
70303;SDS011;57712;48.752;11.348;2023-03-15T11:20:31;5.78;;;0.95;;
70303;SDS011;57712;48.752;11.348;2023-03-15T11:23:05;10.00;;;1.73;;
70303;SDS011;57712;48.752;11.348;2023-03-15T11:25:40;5.32;;;1.02;;
70303;SDS011;57712;48.752;11.348;2023-03-15T11:28:10;7.28;;;1.20;;
70303;SDS011;57712;48.752;11.348;2023-03-15T11:30:44;9.13;;;1.57;;
70303;SDS011;57712;48.752;11.348;2023-03-15T11:33:20;6.07;;;1.27;;
70303;SDS011;57712;48.752;11.348;2023-03-15T11:35:53;8.65;;;1.27;;
70303;SDS011;57712;48.752;11.348;2023-03-15T11:38:25;7.50;;;1.58;;
70303;SDS011;57712;48.752;11.348;2023-03-15T11:41:01;6.38;;;1.25;;
70303;SDS011;57712;48.752;11.348;2023-03-15T11:43:43;7.00;;;1.63;;
70303;SDS011;57712;48.752;11.348;2023-03-15T11:46:20;5.55;;;1.25;;
70303;SDS011;57712;48.752;11.348;2023-03-15T11:49:10;4.88;;;1.23;;
70303;SDS011;57712;48.752;11.348;2023-03-15T11:51:43;4.88;;;0.90;;
70303;SDS011;57712;48.752;11.348;2023-03-15T11:54:16;7.85;;;1.80;;
70303;SDS011;57712;48.752;11.348;2023-03-15T11:56:54;7.23;;;1.57;;
70303;SDS011;57712;48.752;11.348;2023-03-15T11:59:24;6.50;;;1.73;;
70303;SDS011;57712;48.752;11.348;2023-03-15T12:06:53;7.57;;;1.38;;
70303;SDS011;57712;48.752;11.348;2023-03-15T12:12:01;5.90;;;1.25;;
70303;SDS011;57712;48.752;11.348;2023-03-15T12:14:30;5.60;;;1.48;;
70303;SDS011;57712;48.752;11.348;2023-03-15T12:19:59;6.80;;;1.30;;
70303;SDS011;57712;48.752;11.348;2023-03-15T12:25:28;7.40;;;1.27;;
70303;SDS011;57712;48.752;11.348;2023-03-15T12:27:59;5.05;;;0.90;;
70303;SDS011;57712;48.752;11.348;2023-03-15T12:30:40;4.80;;;0.93;;
70303;SDS011;57712;48.752;11.348;2023-03-15T12:33:13;6.13;;;1.05;;
70303;SDS011;57712;48.752;11.348;2023-03-15T12:35:42;5.20;;;0.67;;
70303;SDS011;57712;48.752;11.348;2023-03-15T12:38:16;5.15;;;0.80;;
70303;SDS011;57712;48.752;11.348;2023-03-15T12:40:52;5.90;;;0.80;;
70303;SDS011;57712;48.752;11.348;2023-03-15T12:43:40;4.88;;;1.08;;
70303;SDS011;57712;48.752;11.348;2023-03-15T12:49:10;4.40;;;0.80;;
70303;SDS011;57712;48.752;11.348;2023-03-15T12:52:40;5.97;;;1.10;;
70303;SDS011;57712;48.752;11.348;2023-03-15T12:57:23;5.88;;;1.00;;
70303;SDS011;57712;48.752;11.348;2023-03-15T13:02:42;7.03;;;1.10;;
70303;SDS011;57712;48.752;11.348;2023-03-15T13:05:30;5.53;;;1.02;;
70303;SDS011;57712;48.752;11.348;2023-03-15T13:08:16;6.80;;;1.30;;
70303;SDS011;57712;48.752;11.348;2023-03-15T13:18:41;5.53;;;0.80;;
70303;SDS011;57712;48.752;11.348;2023-03-15T13:21:35;4.40;;;0.60;;
70303;SDS011;57712;48.752;11.348;2023-03-15T13:24:16;6.75;;;0.80;;
70303;SDS011;57712;48.752;11.348;2023-03-15T13:27:33;4.75;;;0.73;;
70303;SDS011;57712;48.752;11.348;2023-03-15T13:30:31;5.13;;;0.70;;
70303;SDS011;57712;48.752;11.348;2023-03-15T13:33:09;7.45;;;1.13;;
70303;SDS011;57712;48.752;11.348;2023-03-15T13:35:43;5.75;;;1.02;;
70303;SDS011;57712;48.752;11.348;2023-03-15T13:41:01;9.15;;;1.33;;
70303;SDS011;57712;48.752;11.348;2023-03-15T13:43:34;4.97;;;1.47;;
70303;SDS011;57712;48.752;11.348;2023-03-15T13:46:03;5.97;;;1.40;;
70303;SDS011;57712;48.752;11.348;2023-03-15T13:48:32;6.75;;;0.90;;
70303;SDS011;57712;48.752;11.348;2023-03-15T13:51:35;6.90;;;1.95;;
70303;SDS011;57712;48.752;11.348;2023-03-15T13:54:07;6.28;;;1.90;;
70303;SDS011;57712;48.752;11.348;2023-03-15T13:57:10;7.37;;;0.90;;
70303;SDS011;57712;48.752;11.348;2023-03-15T13:59:45;8.10;;;1.02;;
70303;SDS011;57712;48.752;11.348;2023-03-15T14:05:02;6.55;;;1.10;;
70303;SDS011;57712;48.752;11.348;2023-03-15T14:07:35;7.70;;;1.55;;
70303;SDS011;57712;48.752;11.348;2023-03-15T14:13:07;6.20;;;1.60;;
70303;SDS011;57712;48.752;11.348;2023-03-15T14:15:46;4.85;;;1.25;;
70303;SDS011;57712;48.752;11.348;2023-03-15T14:18:20;5.65;;;1.02;;
70303;SDS011;57712;48.752;11.348;2023-03-15T14:23:57;5.87;;;1.47;;
70303;SDS011;57712;48.752;11.348;2023-03-15T14:26:39;7.95;;;1.30;;
70303;SDS011;57712;48.752;11.348;2023-03-15T14:29:07;6.05;;;1.80;;
70303;SDS011;57712;48.752;11.348;2023-03-15T14:31:49;7.28;;;1.63;;
70303;SDS011;57712;48.752;11.348;2023-03-15T14:37:22;9.67;;;2.00;;
70303;SDS011;57712;48.752;11.348;2023-03-15T14:40:03;7.22;;;1.30;;
70303;SDS011;57712;48.752;11.348;2023-03-15T14:42:34;7.03;;;1.35;;
70303;SDS011;57712;48.752;11.348;2023-03-15T14:45:01;8.52;;;1.75;;
70303;SDS011;57712;48.752;11.348;2023-03-15T14:47:28;6.97;;;1.55;;
70303;SDS011;57712;48.752;11.348;2023-03-15T14:49:54;6.30;;;1.50;;
70303;SDS011;57712;48.752;11.348;2023-03-15T14:52:21;6.18;;;1.15;;
70303;SDS011;57712;48.752;11.348;2023-03-15T14:54:51;5.05;;;1.17;;
70303;SDS011;57712;48.752;11.348;2023-03-15T14:57:18;7.20;;;1.40;;
70303;SDS011;57712;48.752;11.348;2023-03-15T14:59:44;5.22;;;1.35;;
70303;SDS011;57712;48.752;11.348;2023-03-15T15:02:13;5.97;;;1.47;;
70303;SDS011;57712;48.752;11.348;2023-03-15T15:04:42;5.65;;;1.20;;
70303;SDS011;57712;48.752;11.348;2023-03-15T15:07:10;6.30;;;1.50;;
70303;SDS011;57712;48.752;11.348;2023-03-15T15:09:38;5.00;;;1.05;;
70303;SDS011;57712;48.752;11.348;2023-03-15T15:12:11;7.85;;;1.10;;
70303;SDS011;57712;48.752;11.348;2023-03-15T15:14:38;6.30;;;1.10;;
70303;SDS011;57712;48.752;11.348;2023-03-15T15:17:04;5.63;;;1.05;;
70303;SDS011;57712;48.752;11.348;2023-03-15T15:19:31;4.47;;;1.05;;
70303;SDS011;57712;48.752;11.348;2023-03-15T15:21:57;5.68;;;1.50;;
70303;SDS011;57712;48.752;11.348;2023-03-15T15:24:24;6.80;;;1.40;;
70303;SDS011;57712;48.752;11.348;2023-03-15T15:26:52;5.83;;;1.60;;
70303;SDS011;57712;48.752;11.348;2023-03-15T15:29:18;7.00;;;1.83;;
70303;SDS011;57712;48.752;11.348;2023-03-15T15:31:45;5.80;;;1.20;;
70303;SDS011;57712;48.752;11.348;2023-03-15T15:34:12;6.22;;;0.90;;
70303;SDS011;57712;48.752;11.348;2023-03-15T15:36:39;4.80;;;1.05;;
70303;SDS011;57712;48.752;11.348;2023-03-15T15:41:48;7.55;;;1.60;;
70303;SDS011;57712;48.752;11.348;2023-03-15T15:44:16;9.35;;;2.30;;
70303;SDS011;57712;48.752;11.348;2023-03-15T15:46:44;6.97;;;2.15;;
70303;SDS011;57712;48.752;11.348;2023-03-15T15:49:11;6.10;;;1.50;;
70303;SDS011;57712;48.752;11.348;2023-03-15T15:51:39;5.97;;;1.20;;
70303;SDS011;57712;48.752;11.348;2023-03-15T15:54:17;7.63;;;1.48;;
70303;SDS011;57712;48.752;11.348;2023-03-15T15:56:49;8.68;;;2.30;;
70303;SDS011;57712;48.752;11.348;2023-03-15T15:59:21;6.50;;;1.00;;